createdAt,value
2023-03-07T00:00:35.452Z,99158.69
2023-03-07T00:03:04.034Z,99161.16
2023-03-07T00:05:32.460Z,99141.25
2023-03-07T00:08:03.960Z,99145.91
2023-03-07T00:10:32.183Z,99128.09
2023-03-07T00:13:00.646Z,99124.91
2023-03-07T00:15:30.421Z,99119.22
2023-03-07T00:17:58.342Z,99116.19
2023-03-07T00:20:26.219Z,99113.09
2023-03-07T00:22:54.320Z,99113.09
2023-03-07T00:25:22.236Z,99105.38
2023-03-07T00:27:50.037Z,99106.19
2023-03-07T00:30:18.437Z,99086.59
2023-03-07T00:32:47.699Z,99102.47
2023-03-07T00:35:16.021Z,99090.44
2023-03-07T00:37:43.992Z,99089.31
2023-03-07T00:40:13.137Z,99087.59
2023-03-07T00:42:41.014Z,99077.00
2023-03-07T00:45:10.897Z,99074.22
2023-03-07T00:47:39.007Z,99067.38
2023-03-07T00:50:09.791Z,99061.06
2023-03-07T00:52:37.952Z,99059.88
2023-03-07T00:55:06.615Z,99059.91
2023-03-07T00:57:34.595Z,99060.50
2023-03-07T01:00:02.459Z,99045.88
2023-03-07T01:02:30.399Z,99048.34
2023-03-07T01:04:58.248Z,99047.47
2023-03-07T01:07:27.587Z,99034.22
2023-03-07T01:09:56.436Z,99032.91
2023-03-07T01:12:24.441Z,99023.38
2023-03-07T01:14:52.728Z,99026.69
2023-03-07T01:17:20.722Z,99019.59
2023-03-07T01:19:48.556Z,99010.84
2023-03-07T01:22:16.489Z,99007.50
2023-03-07T01:24:45.731Z,98996.06
2023-03-07T01:27:14.728Z,98992.97
2023-03-07T01:29:42.664Z,98985.31
2023-03-07T01:32:10.930Z,98982.50
2023-03-07T01:34:39.139Z,98970.56
2023-03-07T01:37:07.071Z,98980.72
2023-03-07T01:39:35.383Z,98967.59
2023-03-07T01:42:08.680Z,98959.41
2023-03-07T01:45:01.916Z,98956.72
2023-03-07T01:47:39.690Z,98944.06
2023-03-07T01:50:12.283Z,98945.00
2023-03-07T01:52:43.285Z,98942.53
2023-03-07T01:55:16.504Z,98948.50
2023-03-07T01:57:50.699Z,98931.06
2023-03-07T02:00:28.699Z,98937.53
2023-03-07T02:03:03.710Z,98926.16
2023-03-07T02:05:38.123Z,98916.88
2023-03-07T02:08:10.059Z,98926.88
2023-03-07T02:10:38.811Z,98910.22
2023-03-07T02:13:08.592Z,98914.47
2023-03-07T02:15:37.027Z,98914.41
2023-03-07T02:18:06.409Z,98913.16
2023-03-07T02:20:41.276Z,98912.00
2023-03-07T02:23:20.436Z,98906.91
2023-03-07T02:25:53.323Z,98905.28
2023-03-07T02:28:22.984Z,98904.88
2023-03-07T02:30:55.927Z,98900.34
2023-03-07T02:33:25.800Z,98896.94
2023-03-07T02:36:04.053Z,98900.25
2023-03-07T02:38:37.854Z,98897.16
2023-03-07T02:41:06.683Z,98896.06
2023-03-07T02:43:37.746Z,98890.06
2023-03-07T02:46:06.254Z,98890.56
2023-03-07T02:48:34.152Z,98882.97
2023-03-07T02:51:02.144Z,98884.13
2023-03-07T02:53:30.421Z,98885.00
2023-03-07T02:55:58.193Z,98878.63
2023-03-07T02:58:26.736Z,98883.41
2023-03-07T03:00:55.914Z,98870.56
2023-03-07T03:03:23.769Z,98880.19
2023-03-07T03:05:51.521Z,98879.44
2023-03-07T03:08:20.165Z,98877.00
2023-03-07T03:10:52.571Z,98880.44
2023-03-07T03:13:21.176Z,98873.34
2023-03-07T03:15:48.983Z,98871.72
2023-03-07T03:18:18.193Z,98864.69
2023-03-07T03:20:46.047Z,98860.38
2023-03-07T03:23:13.821Z,98865.69
2023-03-07T03:25:41.667Z,98856.19
2023-03-07T03:28:09.990Z,98855.03
2023-03-07T03:30:37.836Z,98855.47
2023-03-07T03:33:05.959Z,98854.63
2023-03-07T03:35:38.430Z,98853.75
2023-03-07T03:38:06.672Z,98846.06
2023-03-07T03:40:34.455Z,98856.03
2023-03-07T03:43:02.375Z,98848.59
2023-03-07T03:45:30.278Z,98861.22
2023-03-07T03:47:58.019Z,98846.09
2023-03-07T03:50:25.871Z,98843.47
2023-03-07T03:52:54.959Z,98842.81
2023-03-07T03:55:22.835Z,98845.44
2023-03-07T03:57:50.714Z,98843.59
2023-03-07T04:00:21.110Z,98850.53
2023-03-07T04:02:49.588Z,98838.56
2023-03-07T04:05:19.107Z,98832.72
2023-03-07T04:07:47.019Z,98847.28
2023-03-07T04:10:16.519Z,98831.13
2023-03-07T04:12:44.553Z,98836.50
2023-03-07T04:15:12.845Z,98837.88
2023-03-07T04:17:40.649Z,98834.13
2023-03-07T04:20:14.694Z,98830.75
2023-03-07T04:22:42.522Z,98827.53
2023-03-07T04:25:12.479Z,98838.19
2023-03-07T04:27:43.107Z,98826.38
2023-03-07T04:30:13.450Z,98823.69
2023-03-07T04:32:42.438Z,98826.53
2023-03-07T04:35:10.679Z,98822.03
2023-03-07T04:37:38.461Z,98817.03
2023-03-07T04:40:07.670Z,98824.34
2023-03-07T04:42:35.733Z,98810.81
2023-03-07T04:45:04.897Z,98807.44
2023-03-07T04:47:34.052Z,98805.69
2023-03-07T04:50:03.790Z,98801.31
2023-03-07T04:52:33.457Z,98791.25
2023-03-07T04:55:01.787Z,98794.16
2023-03-07T04:57:29.737Z,98800.91
2023-03-07T04:59:57.678Z,98802.25
2023-03-07T05:02:25.461Z,98804.97
2023-03-07T05:04:55.092Z,98811.13
2023-03-07T05:07:23.735Z,98819.50
2023-03-07T05:09:52.641Z,98815.94
2023-03-07T05:12:20.788Z,98827.28
2023-03-07T05:14:48.554Z,98831.03
2023-03-07T05:17:16.913Z,98852.72
2023-03-07T05:19:44.924Z,98843.81
2023-03-07T05:22:14.373Z,98833.94
2023-03-07T05:24:44.314Z,98836.59
2023-03-07T05:27:12.122Z,98848.00
2023-03-07T05:29:39.946Z,98852.03
2023-03-07T05:32:08.215Z,98856.19
2023-03-07T05:34:38.020Z,98846.44
2023-03-07T05:37:05.942Z,98858.38
2023-03-07T05:39:35.338Z,98855.72
2023-03-07T05:42:03.069Z,98843.69
2023-03-07T05:44:33.761Z,98840.84
2023-03-07T05:47:02.590Z,98835.44
2023-03-07T05:49:30.821Z,98832.66
2023-03-07T05:51:58.648Z,98838.59
2023-03-07T05:54:27.079Z,98836.50
2023-03-07T05:56:56.426Z,98835.66
2023-03-07T05:59:24.298Z,98830.78
2023-03-07T06:01:53.456Z,98828.25
2023-03-07T06:04:21.414Z,98820.50
2023-03-07T06:06:49.199Z,98819.22
2023-03-07T06:09:17.144Z,98810.63
2023-03-07T06:11:44.982Z,98814.16
2023-03-07T06:14:14.234Z,98824.53
2023-03-07T06:16:42.101Z,98816.56
2023-03-07T06:19:09.995Z,98806.34
2023-03-07T06:21:38.421Z,98808.81
2023-03-07T06:24:07.700Z,98813.47
2023-03-07T06:26:35.977Z,98805.63
2023-03-07T06:29:05.267Z,98808.28
2023-03-07T06:31:34.873Z,98811.19
2023-03-07T06:34:02.788Z,98812.91
2023-03-07T06:36:30.789Z,98809.59
2023-03-07T06:39:01.791Z,98809.31
2023-03-07T06:41:30.053Z,98806.69
2023-03-07T06:44:00.248Z,98814.19
2023-03-07T06:46:31.704Z,98823.88
2023-03-07T06:49:04.377Z,98813.78
2023-03-07T06:51:32.454Z,98817.88
2023-03-07T06:54:01.298Z,98817.28
2023-03-07T06:56:31.242Z,98825.69
2023-03-07T06:59:00.109Z,98825.19
2023-03-07T07:01:28.008Z,98824.44
2023-03-07T07:03:58.204Z,98818.97
2023-03-07T07:06:27.914Z,98822.44
2023-03-07T07:08:57.156Z,98828.81
2023-03-07T07:11:27.994Z,98818.09
2023-03-07T07:13:56.648Z,98829.09
2023-03-07T07:16:25.266Z,98829.28
2023-03-07T07:18:53.499Z,98828.09
2023-03-07T07:21:22.308Z,98839.31
2023-03-07T07:23:51.816Z,98836.28
2023-03-07T07:26:19.954Z,98847.53
2023-03-07T07:28:47.947Z,98848.94
2023-03-07T07:31:15.888Z,98850.91
2023-03-07T07:33:46.480Z,98844.19
2023-03-07T07:36:16.496Z,98857.03
2023-03-07T07:38:45.327Z,98850.31
2023-03-07T07:41:15.286Z,98841.56
2023-03-07T07:43:46.894Z,98847.56
2023-03-07T07:46:30.378Z,98852.28
2023-03-07T07:49:07.858Z,98854.28
2023-03-07T07:51:35.733Z,98864.28
2023-03-07T07:54:03.724Z,98854.69
2023-03-07T07:56:34.402Z,98854.56
2023-03-07T07:59:02.434Z,98853.44
2023-03-07T08:01:30.589Z,98849.47
2023-03-07T08:03:58.476Z,98860.47
2023-03-07T08:06:30.825Z,98846.69
2023-03-07T08:09:00.053Z,98859.25
2023-03-07T08:11:28.293Z,98853.06
2023-03-07T08:13:57.692Z,98851.13
2023-03-07T08:16:26.105Z,98858.16
2023-03-07T08:18:55.884Z,98853.28
2023-03-07T08:21:24.445Z,98858.25
2023-03-07T08:23:52.467Z,98864.84
2023-03-07T08:26:20.528Z,98869.13
2023-03-07T08:28:49.345Z,98869.25
2023-03-07T08:31:23.641Z,98869.16
2023-03-07T08:33:58.930Z,98872.63
2023-03-07T08:36:27.078Z,98862.50
2023-03-07T08:38:55.044Z,98869.00
2023-03-07T08:41:23.849Z,98868.03
2023-03-07T08:43:51.973Z,98869.47
2023-03-07T08:46:21.618Z,98863.16
2023-03-07T08:48:49.445Z,98872.31
2023-03-07T08:51:18.752Z,98868.72
2023-03-07T08:53:47.525Z,98875.63
2023-03-07T08:56:17.141Z,98876.41
2023-03-07T08:58:45.505Z,98883.22
2023-03-07T09:01:13.895Z,98884.94
2023-03-07T09:03:44.750Z,98876.03
2023-03-07T09:06:22.093Z,98884.47
2023-03-07T09:09:02.296Z,98889.63
2023-03-07T09:11:36.562Z,98897.19
2023-03-07T09:14:04.665Z,98891.16
2023-03-07T09:16:36.907Z,98886.19
2023-03-07T09:19:06.847Z,98898.22
2023-03-07T09:21:34.816Z,98886.63
2023-03-07T09:24:05.692Z,98894.81
2023-03-07T09:26:33.529Z,98888.31
2023-03-07T09:29:01.729Z,98894.44
2023-03-07T09:31:29.547Z,98890.22
2023-03-07T09:33:58.258Z,98886.75
2023-03-07T09:36:27.498Z,98876.31
2023-03-07T09:38:58.020Z,98883.50
2023-03-07T09:41:51.143Z,98889.00
2023-03-07T09:44:32.060Z,98888.41
2023-03-07T09:47:39.220Z,98887.19
2023-03-07T09:50:14.754Z,98893.56
2023-03-07T09:52:44.579Z,98884.25
2023-03-07T09:55:16.781Z,98890.25
2023-03-07T09:57:50.533Z,98888.53
2023-03-07T10:00:25.329Z,98884.97
2023-03-07T10:02:58.125Z,98877.47
2023-03-07T10:05:32.717Z,98879.06
2023-03-07T10:08:05.080Z,98882.16
2023-03-07T10:10:39.716Z,98888.56
2023-03-07T10:13:21.037Z,98886.75
2023-03-07T10:15:51.658Z,98884.03
2023-03-07T10:18:31.441Z,98881.19
2023-03-07T10:21:07.440Z,98891.47
2023-03-07T10:24:01.606Z,98887.34
2023-03-07T10:26:33.851Z,98890.75
2023-03-07T10:29:13.306Z,98893.63
2023-03-07T10:31:44.994Z,98899.22
2023-03-07T10:34:26.727Z,98895.13
2023-03-07T10:37:08.491Z,98895.63
2023-03-07T10:39:44.262Z,98895.38
2023-03-07T10:42:14.576Z,98893.16
2023-03-07T10:44:45.259Z,98901.16
2023-03-07T10:47:21.117Z,98896.06
2023-03-07T10:49:52.783Z,98891.72
2023-03-07T10:52:33.264Z,98899.66
2023-03-07T10:55:35.469Z,98896.22
2023-03-07T10:58:21.234Z,98908.53
2023-03-07T11:01:15.080Z,98904.25
2023-03-07T11:03:56.883Z,98898.78
2023-03-07T11:06:39.165Z,98897.09
2023-03-07T11:09:27.103Z,98900.41
2023-03-07T11:11:59.079Z,98890.91
2023-03-07T11:14:28.967Z,98894.06
2023-03-07T11:16:59.571Z,98895.63
2023-03-07T11:19:37.862Z,98885.84
2023-03-07T11:22:18.166Z,98879.47
2023-03-07T11:24:52.611Z,98880.91
2023-03-07T11:27:25.714Z,98884.56
2023-03-07T11:30:25.263Z,98896.03
2023-03-07T11:33:08.919Z,98895.50
2023-03-07T11:35:52.407Z,98890.78
2023-03-07T11:38:43.905Z,98890.50
2023-03-07T11:41:17.669Z,98892.22
2023-03-07T11:43:58.036Z,98884.84
2023-03-07T11:46:40.936Z,98891.78
2023-03-07T11:49:25.711Z,98889.09
2023-03-07T11:55:12.407Z,98883.31
2023-03-07T11:57:58.477Z,98875.25
2023-03-07T12:00:33.472Z,98870.72
2023-03-07T12:03:21.545Z,98861.03
2023-03-07T12:06:12.742Z,98865.63
2023-03-07T12:08:57.711Z,98863.63
2023-03-07T12:11:43.015Z,98868.28
2023-03-07T12:14:24.017Z,98875.06
2023-03-07T12:17:04.122Z,98870.69
2023-03-07T12:20:05.449Z,98878.38
2023-03-07T12:22:41.860Z,98883.22
2023-03-07T12:25:22.380Z,98875.31
2023-03-07T12:28:02.137Z,98880.38
2023-03-07T12:30:39.466Z,98874.78
2023-03-07T12:33:20.066Z,98873.22
2023-03-07T12:35:51.324Z,98890.84
2023-03-07T12:38:27.291Z,98883.00
2023-03-07T12:40:59.600Z,98891.56
2023-03-07T12:43:33.292Z,98902.41
2023-03-07T12:46:10.399Z,98898.88
2023-03-07T12:48:49.879Z,98896.88
2023-03-07T12:51:25.113Z,98897.56
2023-03-07T12:53:59.612Z,98882.97
2023-03-07T12:56:34.046Z,98884.59
2023-03-07T12:59:07.586Z,98882.09
2023-03-07T13:01:38.265Z,98867.91
2023-03-07T13:04:15.026Z,98875.44
2023-03-07T13:06:44.615Z,98881.66
2023-03-07T13:09:19.903Z,98886.94
2023-03-07T13:12:24.033Z,98885.56
2023-03-07T13:14:53.270Z,98888.19
2023-03-07T13:18:00.610Z,98890.66
2023-03-07T13:20:46.207Z,98889.09
2023-03-07T13:23:24.509Z,98895.53
2023-03-07T13:26:14.052Z,98886.66
2023-03-07T13:28:51.996Z,98894.25
2023-03-07T13:31:43.743Z,98921.56
2023-03-07T13:34:51.428Z,98949.69
2023-03-07T13:37:55.004Z,98953.47
2023-03-07T13:40:55.390Z,98945.41
2023-03-07T13:43:57.117Z,98936.84
2023-03-07T13:47:01.454Z,98928.34
2023-03-07T13:49:44.016Z,98930.66
2023-03-07T13:52:37.649Z,98919.47
2023-03-07T13:55:24.167Z,98919.94
2023-03-07T13:57:52.318Z,98920.91
2023-03-07T14:00:26.791Z,98921.91
2023-03-07T14:02:55.904Z,98891.72
2023-03-07T14:05:24.125Z,98916.31
2023-03-07T14:07:57.772Z,98907.41
2023-03-07T14:10:29.143Z,98928.34
2023-03-07T14:13:28.556Z,98936.38
2023-03-07T14:16:16.733Z,98941.81
2023-03-07T14:18:58.722Z,98929.47
2023-03-07T14:21:34.778Z,98934.66
2023-03-07T14:24:39.289Z,98925.84
2023-03-07T14:27:14.246Z,98928.81
2023-03-07T14:29:50.898Z,98935.81
2023-03-07T14:32:24.497Z,98931.28
2023-03-07T14:34:53.880Z,98929.75
2023-03-07T14:37:26.272Z,98932.78
2023-03-07T14:40:14.865Z,98941.31
2023-03-07T14:42:52.997Z,98955.19
2023-03-07T14:45:30.719Z,98954.28
2023-03-07T14:48:35.688Z,98954.50
2023-03-07T14:51:14.179Z,98955.72
2023-03-07T14:53:42.972Z,98959.06
2023-03-07T14:56:12.163Z,98959.34
2023-03-07T14:58:50.927Z,98956.13
2023-03-07T15:01:23.740Z,98947.78
2023-03-07T15:03:53.546Z,98953.41
2023-03-07T15:06:24.694Z,98954.16
2023-03-07T15:08:53.315Z,98964.66
2023-03-07T15:11:30.542Z,98954.38
2023-03-07T15:14:02.920Z,98952.84
2023-03-07T15:16:35.601Z,98949.72
2023-03-07T15:19:10.371Z,98962.94
2023-03-07T15:21:41.579Z,98963.94
2023-03-07T15:24:21.183Z,98956.53
2023-03-07T15:26:51.114Z,98960.38
2023-03-07T15:29:23.086Z,98959.91
2023-03-07T15:31:54.883Z,98960.19
2023-03-07T15:34:26.806Z,98968.50
2023-03-07T15:36:55.675Z,98961.56
2023-03-07T15:39:29.194Z,98953.16
2023-03-07T15:42:02.950Z,98956.34
2023-03-07T15:44:33.173Z,98955.50
2023-03-07T15:47:06.386Z,98950.59
2023-03-07T15:49:41.949Z,98937.75
2023-03-07T15:52:22.324Z,98945.06
2023-03-07T15:54:53.182Z,98937.44
2023-03-07T15:57:23.506Z,98945.41
2023-03-07T15:59:58.808Z,98955.06
2023-03-07T16:02:46.372Z,98960.78
2023-03-07T16:05:38.485Z,98981.41
2023-03-07T16:08:15.865Z,98979.81
2023-03-07T16:10:52.396Z,98976.22
2023-03-07T16:13:23.351Z,98982.63
2023-03-07T16:16:06.145Z,98978.75
2023-03-07T16:18:35.044Z,98979.44
2023-03-07T16:21:03.788Z,98982.44
2023-03-07T16:23:34.922Z,98970.16
2023-03-07T16:26:06.210Z,98975.84
2023-03-07T16:28:35.065Z,98985.13
2023-03-07T16:31:04.671Z,98992.34
2023-03-07T16:33:32.934Z,98984.03
2023-03-07T16:36:01.204Z,98981.63
2023-03-07T16:38:29.770Z,98989.19
2023-03-07T16:40:58.901Z,98993.31
2023-03-07T16:43:34.544Z,98992.44
2023-03-07T16:46:06.994Z,98998.94
2023-03-07T16:48:35.472Z,99006.59
2023-03-07T16:51:05.269Z,99004.72
2023-03-07T16:53:33.282Z,99014.41
2023-03-07T16:56:01.442Z,99019.38
2023-03-07T16:58:33.571Z,99022.88
2023-03-07T17:01:02.076Z,99019.91
2023-03-07T17:03:31.615Z,99022.16
2023-03-07T17:06:00.411Z,99018.06
2023-03-07T17:08:28.466Z,99022.28
2023-03-07T17:10:57.346Z,99020.41
2023-03-07T17:13:25.270Z,99023.00
2023-03-07T17:15:53.220Z,99028.19
2023-03-07T17:18:22.354Z,99023.50
2023-03-07T17:20:52.098Z,99029.88
2023-03-07T17:23:22.241Z,99033.41
2023-03-07T17:25:50.281Z,99042.56
2023-03-07T17:28:20.337Z,99047.03
2023-03-07T17:30:49.750Z,99043.56
2023-03-07T17:33:17.829Z,99047.69
2023-03-07T17:35:45.825Z,99033.59
2023-03-07T17:38:15.024Z,99041.34
2023-03-07T17:40:44.035Z,99048.31
2023-03-07T17:43:12.594Z,99047.53
2023-03-07T17:45:40.621Z,99046.28
2023-03-07T17:48:08.865Z,99046.41
2023-03-07T17:50:36.767Z,99045.06
2023-03-07T17:53:04.733Z,99045.28
2023-03-07T17:55:34.319Z,99046.50
2023-03-07T17:58:02.282Z,99045.28
2023-03-07T18:00:30.303Z,99047.06
2023-03-07T18:02:58.255Z,99049.56
2023-03-07T18:05:27.971Z,99060.25
2023-03-07T18:07:56.896Z,99066.28
2023-03-07T18:10:25.328Z,99067.59
2023-03-07T18:12:54.695Z,99058.00
2023-03-07T18:15:23.155Z,99077.13
2023-03-07T18:17:51.877Z,99072.19
2023-03-07T18:20:21.436Z,99074.53
2023-03-07T18:22:49.699Z,99072.63
2023-03-07T18:25:18.649Z,99082.47
2023-03-07T18:27:47.189Z,99081.31
2023-03-07T18:30:17.650Z,99088.88
2023-03-07T18:32:45.782Z,99084.69
2023-03-07T18:35:15.491Z,99076.09
2023-03-07T18:37:45.245Z,99085.63
2023-03-07T18:40:14.184Z,99081.47
2023-03-07T18:42:43.361Z,99084.78
2023-03-07T18:45:12.176Z,99089.16
2023-03-07T18:47:41.582Z,99096.72
2023-03-07T18:50:11.143Z,99103.75
2023-03-07T18:52:39.019Z,99110.84
2023-03-07T18:55:07.338Z,99106.97
2023-03-07T18:57:35.289Z,99107.53
2023-03-07T19:00:03.952Z,99102.66
2023-03-07T19:02:31.937Z,99104.91
2023-03-07T19:05:01.386Z,99116.13
2023-03-07T19:07:31.204Z,99106.56
2023-03-07T19:09:59.089Z,99115.66
2023-03-07T19:12:26.926Z,99111.31
2023-03-07T19:14:54.722Z,99111.56
2023-03-07T19:17:22.490Z,99104.97
2023-03-07T19:19:52.907Z,99112.78
2023-03-07T19:22:25.831Z,99113.19
2023-03-07T19:24:54.901Z,99114.53
2023-03-07T19:27:22.748Z,99124.97
2023-03-07T19:29:50.685Z,99124.66
2023-03-07T19:32:19.010Z,99134.28
2023-03-07T19:34:49.657Z,99136.03
2023-03-07T19:37:17.918Z,99147.50
2023-03-07T19:39:47.433Z,99142.91
2023-03-07T19:42:15.302Z,99155.16
2023-03-07T19:44:43.536Z,99151.75
2023-03-07T19:47:11.781Z,99159.16
2023-03-07T19:49:39.733Z,99153.91
2023-03-07T19:52:07.772Z,99153.53
2023-03-07T19:54:35.740Z,99158.25
2023-03-07T19:57:05.504Z,99160.75
2023-03-07T19:59:33.577Z,99162.09
2023-03-07T20:02:01.604Z,99168.81
2023-03-07T20:04:29.592Z,99175.59
2023-03-07T20:06:57.772Z,99171.66
2023-03-07T20:09:28.873Z,99178.91
2023-03-07T20:11:57.312Z,99179.50
2023-03-07T20:14:28.239Z,99175.84
2023-03-07T20:17:07.190Z,99183.00
2023-03-07T20:19:35.462Z,99189.41
2023-03-07T20:22:04.879Z,99180.09
2023-03-07T20:24:33.168Z,99188.91
2023-03-07T20:27:01.520Z,99191.53
2023-03-07T20:29:31.061Z,99195.22
2023-03-07T20:31:59.121Z,99194.91
2023-03-07T20:34:27.086Z,99199.94
2023-03-07T20:36:56.841Z,99194.69
2023-03-07T20:39:25.337Z,99199.91
2023-03-07T20:41:53.378Z,99205.28
2023-03-07T20:44:21.717Z,99206.13
2023-03-07T20:46:51.024Z,99215.47
2023-03-07T20:49:19.226Z,99203.75
2023-03-07T20:51:48.724Z,99206.06
2023-03-07T20:54:18.426Z,99216.19
2023-03-07T20:56:47.969Z,99219.22
2023-03-07T20:59:20.289Z,99217.56
2023-03-07T21:01:48.823Z,99220.84
2023-03-07T21:04:21.167Z,99215.94
2023-03-07T21:06:50.509Z,99227.88
2023-03-07T21:09:20.069Z,99230.78
2023-03-07T21:11:50.130Z,99237.03
2023-03-07T21:14:19.623Z,99235.69
2023-03-07T21:16:47.882Z,99236.03
2023-03-07T21:19:16.371Z,99241.66
2023-03-07T21:21:45.770Z,99236.63
2023-03-07T21:24:15.407Z,99251.66
2023-03-07T21:26:43.352Z,99249.09
2023-03-07T21:29:13.235Z,99251.31
2023-03-07T21:31:41.228Z,99255.19
2023-03-07T21:34:13.132Z,99251.22
2023-03-07T21:36:41.148Z,99251.63
2023-03-07T21:39:12.603Z,99248.47
2023-03-07T21:41:41.503Z,99247.75
2023-03-07T21:44:10.671Z,99243.72
2023-03-07T21:46:38.655Z,99246.38
2023-03-07T21:49:07.572Z,99248.63
2023-03-07T21:51:36.295Z,99252.38
2023-03-07T21:54:05.339Z,99259.25
2023-03-07T21:56:35.269Z,99259.03
2023-03-07T21:59:03.540Z,99261.75
2023-03-07T22:01:31.644Z,99262.50
2023-03-07T22:04:00.841Z,99264.69
2023-03-07T22:06:29.580Z,99259.63
2023-03-07T22:08:59.320Z,99271.19
2023-03-07T22:11:27.662Z,99276.16
2023-03-07T22:13:57.367Z,99270.16
2023-03-07T22:16:25.573Z,99275.34
2023-03-07T22:18:54.966Z,99277.75
2023-03-07T22:21:25.002Z,99279.38
2023-03-07T22:23:57.548Z,99274.16
2023-03-07T22:26:25.882Z,99281.09
2023-03-07T22:28:54.822Z,99274.97
2023-03-07T22:31:24.752Z,99276.69
2023-03-07T22:33:54.142Z,99289.91
2023-03-07T22:36:22.625Z,99284.34
2023-03-07T22:38:55.147Z,99289.97
2023-03-07T22:41:24.370Z,99290.47
2023-03-07T22:43:52.538Z,99294.84
2023-03-07T22:46:20.685Z,99292.50
2023-03-07T22:48:53.380Z,99298.88
2023-03-07T22:51:21.428Z,99304.06
2023-03-07T22:53:51.516Z,99302.19
2023-03-07T22:56:22.363Z,99305.91
2023-03-07T22:58:50.939Z,99316.84
2023-03-07T23:01:21.312Z,99305.06
2023-03-07T23:03:52.510Z,99315.25
2023-03-07T23:06:21.916Z,99311.63
2023-03-07T23:08:51.777Z,99313.44
2023-03-07T23:11:22.565Z,99312.16
2023-03-07T23:13:50.940Z,99303.53
2023-03-07T23:16:21.178Z,99310.19
2023-03-07T23:18:51.826Z,99307.19
2023-03-07T23:21:23.401Z,99301.97
2023-03-07T23:23:57.029Z,99310.59
2023-03-07T23:26:27.623Z,99313.13
2023-03-07T23:28:57.378Z,99309.19
2023-03-07T23:31:27.448Z,99315.97
2023-03-07T23:33:58.355Z,99313.47
2023-03-07T23:36:31.292Z,99312.63
2023-03-07T23:39:00.308Z,99312.69
2023-03-07T23:41:28.895Z,99326.31
2023-03-07T23:44:01.309Z,99319.66
2023-03-07T23:46:31.242Z,99326.72
2023-03-07T23:49:02.450Z,99331.31
2023-03-07T23:51:30.517Z,99326.19
2023-03-07T23:53:58.592Z,99325.91
2023-03-07T23:56:26.550Z,99329.44
2023-03-07T23:58:55.100Z,99327.44
